Catalogue / Essay / Complaints / Home
Logs and Fingerprints
Logs regarding the Fingerprints key IDs: Cookie:11f2384c62957b8fdbf969d81e9ffa2c;
Browser:8ebb4d36c19cf851f483749b78d7c26c; Device:8776e0fdbfdc8924efec7f5995072712; Network:d985bab64983c0991dfa0564d52ab0fe

Download the logs as dataset in CSV format
This must be it (Cookie tracking): ID fingerprint: 11f2384c62957b8fdbf969d81e9ffa2c
Fingerprints: Session Cookie: ; Domain and LSO Cookie:
5438; Activity: Open the HomePage; To: dataasculture.org/; Times: Last 2014-10-04 04:10:45, Previous 2014-09-28 08:42:49, First 2014-09-28 08:42:49
5059; Activity: Website of Sam Meech; To: http://smeech.co.uk; Times: Last 2014-09-28 08:42:49, Previous 2014-09-28 08:42:49, First 2014-09-28 08:42:49
5058; Activity: Open the Catalogue; To: catalogue.php; Times: Last 2014-09-28 08:38:17, Previous 2014-09-28 08:24:04, First 2014-09-28 08:23:50
5057; Activity: Open the HomePage; To: dataasculture.org/; Times: Last 2014-09-28 08:38:06, Previous 2014-09-28 08:24:04, First 2014-09-28 08:23:50
5056; Activity: Open the Catalogue; To: catalogue.php; Times: Last 2014-09-28 08:24:04, Previous 2014-09-28 08:23:50, First 2014-09-28 08:23:50
5055; Activity: Open the Essay; To: text.php; Times: Last 2014-09-28 08:24:04, Previous 2014-09-28 08:24:04, First 2014-09-28 08:24:04
5054; Activity: Open the HomePage; To: dataasculture.org/; Times: Last 2014-09-28 08:23:57, Previous 2014-09-28 08:23:50, First 2014-09-28 08:23:50
5053; Activity: Open the Catalogue; To: catalogue.php; Times: Last 2014-09-28 08:23:50, Previous 2014-09-28 08:23:50, First 2014-09-28 08:23:50
5050; Activity: Open the HomePage; To: dataasculture.org/; Times: Last 2014-09-28 07:59:29, Previous 2014-09-28 07:59:29, First 2014-09-28 07:59:29


This is very probably it (Browser JS tracking): ID fingerprint: 8ebb4d36c19cf851f483749b78d7c26c
Fingerprints: Browser: Mozilla/5.0 (Windows NT 6.1; WOW64) AppleWebKit/537.36 (KHTML, like Gecko) Chrome/37.0.2062.124 Safari/537.36 ~
; ; ;
5894; Activity: Open the HomePage; To: dataasculture.org/; Times: Last 2014-10-17 04:19:11, Previous 2014-10-17 04:19:11, First 2014-10-17 04:19:11
5491; Activity: Open the HomePage; To: dataasculture.org/; Times: Last 2014-10-05 02:58:26, Previous 2014-10-05 02:58:26, First 2014-10-05 02:58:26
5438; Activity: Open the HomePage; To: dataasculture.org/; Times: Last 2014-10-04 04:10:45, Previous 2014-09-28 08:42:49, First 2014-09-28 08:42:49
5059; Activity: Website of Sam Meech; To: http://smeech.co.uk; Times: Last 2014-09-28 08:42:49, Previous 2014-09-28 08:42:49, First 2014-09-28 08:42:49
5058; Activity: Open the Catalogue; To: catalogue.php; Times: Last 2014-09-28 08:38:17, Previous 2014-09-28 08:24:04, First 2014-09-28 08:23:50
5057; Activity: Open the HomePage; To: dataasculture.org/; Times: Last 2014-09-28 08:38:06, Previous 2014-09-28 08:24:04, First 2014-09-28 08:23:50
5056; Activity: Open the Catalogue; To: catalogue.php; Times: Last 2014-09-28 08:24:04, Previous 2014-09-28 08:23:50, First 2014-09-28 08:23:50
5055; Activity: Open the Essay; To: text.php; Times: Last 2014-09-28 08:24:04, Previous 2014-09-28 08:24:04, First 2014-09-28 08:24:04
5054; Activity: Open the HomePage; To: dataasculture.org/; Times: Last 2014-09-28 08:23:57, Previous 2014-09-28 08:23:50, First 2014-09-28 08:23:50
5049; Activity: Open the HomePage; To: dataasculture.org/; Times: Last 2014-09-28 07:59:27, Previous 2014-09-28 07:59:27, First 2014-09-28 07:59:27


This is probably it (Flash Device and LSO Cookie tracking): ID fingerprint: 8776e0fdbfdc8924efec7f5995072712
Fingerprints: Device: Windows 7, x86, en, WIN 15,0,0,152, Google Pepper, PlugIn, none, 1, color, 72, 1920, 1080, 5.1, false, true, true, true,
true, true, true, false, false, true, true, false; Fonts: Caslon Fan Heiti Fangsong Garamond Gothic Heiti Kaiti Ming
Myungjo Naskh Song Laharoni Newangsa Typesett Blackari Narrowar Unicode Msbasker Old Facebata 93bell Sans Fbberlin Sans
Fb Demibern Poster Compress Antiquab Old Styleboo Symbol 7britann Newbrowa Script Fbcambri Mathcand Gothicch Sans
Msconsol Blackcoo Blackcor Newcordi Newdfkai Gothic Scriptga Solid Tower Texthobo Romaniri Potajasm Itckaiti Uikodchi
Gothic Pr6n Bkozuka Gothic Pr6n Elkozuka Gothic Pr6n Hkozuka Gothic Pr6n Lkozuka Gothic Pr6n Mkozuka Gothic Pr6n Rkozuka
Gothic Bkozuka Gothic Elkozuka Gothic Hkozuka Gothic Lkozuka Gothic Mkozuka Gothic Rkozuka Mincho Pr6n Bkozuka Mincho
Pr6n Elkozuka Mincho Pr6n Hkozuka Mincho Pr6n Lkozuka Mincho Pr6n Mkozuka Mincho Pr6n Rkozuka Mincho Bkozuka Mincho
Elkozuka Mincho Hkozuka Mincho Lkozuka Mincho Mkozuka Mincho Rkristen Itckunst Scriptla Uilathal Gothic Brightlu
Calligra Consolel Faxlucid Handwrit Sans Unicodem Gothicms Minchoms Pgothicm Pminchom Referenc Sans Serifms Referenc
Sans Serifms Ui Extramv Bolimagn Gothicma Script Uimesqui Himalaya Jhenghei New Tai Luemicro Phagspam Sans Serifmic Tai
Lemicros Uighurmi Yaheimic Yi Baitimin Condmini Medminio Smbdmiri Fixedmis No. 20mongol Corsivam Arabicmy Hebrewmy
Condmyri Engraved Solidnue Condnyal A English Text Linotype Cherokee Richardp Elite Majallas Printseg Scriptse Uisegoe
Ui Symbolsh Banglash Gothicsh Arabicsi Arabic Fixedsma Fontssna Itcstenc Condtekt Exttempu Sans New Romantra Arabictr
Mstungau Hand Itcvival Scriptvr Latinwin 2wingdin ;
5059; Activity: Website of Sam Meech; To: http://smeech.co.uk; Times: Last 2014-09-28 08:42:49, Previous 2014-09-28 08:42:49, First 2014-09-28 08:42:49
5058; Activity: Open the Catalogue; To: catalogue.php; Times: Last 2014-09-28 08:38:17, Previous 2014-09-28 08:24:04, First 2014-09-28 08:23:50
5056; Activity: Open the Catalogue; To: catalogue.php; Times: Last 2014-09-28 08:24:04, Previous 2014-09-28 08:23:50, First 2014-09-28 08:23:50
5055; Activity: Open the Essay; To: text.php; Times: Last 2014-09-28 08:24:04, Previous 2014-09-28 08:24:04, First 2014-09-28 08:24:04
5053; Activity: Open the Catalogue; To: catalogue.php; Times: Last 2014-09-28 08:23:50, Previous 2014-09-28 08:23:50, First 2014-09-28 08:23:50
5050; Activity: Open the HomePage; To: dataasculture.org/; Times: Last 2014-09-28 07:59:29, Previous 2014-09-28 07:59:29, First 2014-09-28 07:59:29


This could be it (Network traking): ID fingerprint: d985bab64983c0991dfa0564d52ab0fe
Fingerprints: IP: 82.45.196.128; Network: cpc8-hari13-2-0-cust127.20-2.cable.virginm.net
5438; Activity: Open the HomePage; To: dataasculture.org/; Times: Last 2014-10-04 04:10:45, Previous 2014-09-28 08:42:49, First 2014-09-28 08:42:49
5059; Activity: Website of Sam Meech; To: http://smeech.co.uk; Times: Last 2014-09-28 08:42:49, Previous 2014-09-28 08:42:49, First 2014-09-28 08:42:49
5058; Activity: Open the Catalogue; To: catalogue.php; Times: Last 2014-09-28 08:38:17, Previous 2014-09-28 08:24:04, First 2014-09-28 08:23:50
5057; Activity: Open the HomePage; To: dataasculture.org/; Times: Last 2014-09-28 08:38:06, Previous 2014-09-28 08:24:04, First 2014-09-28 08:23:50
5056; Activity: Open the Catalogue; To: catalogue.php; Times: Last 2014-09-28 08:24:04, Previous 2014-09-28 08:23:50, First 2014-09-28 08:23:50
5055; Activity: Open the Essay; To: text.php; Times: Last 2014-09-28 08:24:04, Previous 2014-09-28 08:24:04, First 2014-09-28 08:24:04
5054; Activity: Open the HomePage; To: dataasculture.org/; Times: Last 2014-09-28 08:23:57, Previous 2014-09-28 08:23:50, First 2014-09-28 08:23:50
5053; Activity: Open the Catalogue; To: catalogue.php; Times: Last 2014-09-28 08:23:50, Previous 2014-09-28 08:23:50, First 2014-09-28 08:23:50
5050; Activity: Open the HomePage; To: dataasculture.org/; Times: Last 2014-09-28 07:59:29, Previous 2014-09-28 07:59:29, First 2014-09-28 07:59:29
5049; Activity: Open the HomePage; To: dataasculture.org/; Times: Last 2014-09-28 07:59:27, Previous 2014-09-28 07:59:27, First 2014-09-28 07:59:27